Time;durP1;ratioP1;P1;durP2;ratioP2;P2;SDS_P1;SDS_P2;PMS_P1;PMS_P2;Temp;Humidity;BMP_temperature;BMP_pressure;BME280_temperature;BME280_humidity;BME280_pressure;Samples;Min_cycle;Max_cycle;Signal;HPM_P1;HPM_P2
2022/12/21 00:02:06;;;;;;;35.72;19.02;;;;;;;8.85;100.00;101024.38;5018131;28;20018;-69
2022/12/21 00:04:31;;;;;;;36.28;18.58;;;;;;;8.84;100.00;101014.81;5023970;28;20075;-69
2022/12/21 00:06:57;;;;;;;34.50;18.20;;;;;;;8.84;100.00;101007.00;5012782;28;20081;-75
2022/12/21 00:09:22;;;;;;;33.40;18.33;;;;;;;8.84;100.00;101012.22;5016713;28;20129;-75
2022/12/21 00:11:47;;;;;;;33.38;17.95;;;;;;;8.84;100.00;101014.81;5008672;28;20018;-75
2022/12/21 00:14:13;;;;;;;38.05;18.30;;;;;;;8.85;100.00;101015.72;5006474;28;20232;-75
2022/12/21 00:16:40;;;;;;;35.58;19.02;;;;;;;8.84;100.00;101007.00;5004935;28;20022;-75
2022/12/21 00:19:06;;;;;;;35.25;18.60;;;;;;;8.84;100.00;101001.81;5022263;28;20291;-75
2022/12/21 00:21:34;;;;;;;37.00;18.90;;;;;;;8.86;100.00;101009.66;5012815;28;20030;-75
2022/12/21 00:23:59;;;;;;;37.90;18.67;;;;;;;8.85;100.00;100998.41;5011300;28;20042;-75
2022/12/21 00:26:28;;;;;;;34.90;19.15;;;;;;;8.84;100.00;101011.34;5013662;28;20037;-74
2022/12/21 00:28:55;;;;;;;38.08;20.65;;;;;;;8.84;100.00;101012.22;5012414;28;20021;-75
2022/12/21 00:31:23;;;;;;;33.50;18.52;;;;;;;8.82;100.00;101013.88;5006381;28;20124;-75
2022/12/21 00:33:49;;;;;;;38.40;19.40;;;;;;;8.80;100.00;101012.94;5021067;28;20014;-75
2022/12/21 00:36:17;;;;;;;37.67;19.73;;;;;;;8.77;100.00;101015.44;5018658;28;20162;-74
2022/12/21 00:38:43;;;;;;;36.88;19.05;;;;;;;8.74;100.00;101020.53;5021301;28;20100;-75
2022/12/21 00:41:11;;;;;;;38.70;19.70;;;;;;;8.72;100.00;101016.13;5017593;28;20042;-75
2022/12/21 00:43:39;;;;;;;38.35;19.48;;;;;;;8.71;100.00;101012.63;5017875;28;20058;-75
2022/12/21 00:46:04;;;;;;;40.45;19.90;;;;;;;8.71;100.00;101015.25;5014729;28;20184;-75
2022/12/21 00:48:32;;;;;;;39.65;20.48;;;;;;;8.71;100.00;101023.03;5019927;28;20034;-75
2022/12/21 00:51:05;;;;;;;40.00;20.52;;;;;;;8.69;100.00;101016.91;5029519;28;20037;-74
2022/12/21 00:53:30;;;;;;;35.42;18.73;;;;;;;8.67;100.00;101014.22;5028339;28;20089;-74
2022/12/21 00:55:57;;;;;;;42.42;20.73;;;;;;;8.68;100.00;101021.22;5017024;28;20289;-75
2022/12/21 00:58:24;;;;;;;36.90;19.48;;;;;;;8.70;100.00;101024.75;5017195;28;20029;-75
2022/12/21 01:00:51;;;;;;;40.70;20.75;;;;;;;8.69;100.00;101022.97;5003950;28;20029;-74
2022/12/21 01:03:17;;;;;;;37.45;19.83;;;;;;;8.70;100.00;101024.75;5017275;28;20018;-75
2022/12/21 01:05:47;;;;;;;39.80;20.10;;;;;;;8.71;100.00;101041.22;5014635;28;20050;-75
2022/12/21 01:08:14;;;;;;;41.75;20.30;;;;;;;8.71;100.00;101038.63;5019847;28;20029;-75
2022/12/21 01:10:40;;;;;;;43.78;20.85;;;;;;;8.69;100.00;101037.69;5018438;28;20022;-75
2022/12/21 01:13:05;;;;;;;38.90;20.80;;;;;;;8.71;100.00;101049.00;5015614;28;20038;-75
2022/12/21 01:15:31;;;;;;;40.78;20.70;;;;;;;8.73;100.00;101036.06;5014866;28;20096;-75
2022/12/21 01:17:56;;;;;;;43.15;21.17;;;;;;;8.74;100.00;101037.84;5016605;28;20045;-75
2022/12/21 01:20:21;;;;;;;36.50;18.58;;;;;;;8.73;100.00;101034.34;5022424;28;20136;-77
2022/12/21 01:22:47;;;;;;;37.95;20.05;;;;;;;8.70;100.00;101040.34;5049377;28;20017;-77
2022/12/21 01:25:12;;;;;;;34.13;17.88;;;;;;;8.66;100.00;101042.75;5026223;28;20041;-77
2022/12/21 01:27:37;;;;;;;36.53;18.48;;;;;;;8.62;100.00;101041.78;5018447;28;20045;-77
2022/12/21 01:30:03;;;;;;;33.63;18.45;;;;;;;8.58;100.00;101039.91;5044030;28;20013;-77
2022/12/21 01:32:28;;;;;;;36.25;19.50;;;;;;;8.55;100.00;101037.19;5019011;28;20029;-77
2022/12/21 01:34:53;;;;;;;36.20;18.65;;;;;;;8.53;100.00;101037.16;5016641;28;20264;-77
2022/12/21 01:37:19;;;;;;;40.17;19.88;;;;;;;8.56;100.00;101045.88;5025957;28;20157;-77
2022/12/21 01:39:44;;;;;;;38.85;19.23;;;;;;;8.56;100.00;101051.06;5025967;28;20041;-77
2022/12/21 01:42:12;;;;;;;39.95;20.27;;;;;;;8.51;100.00;101044.00;5013561;28;20045;-77
2022/12/21 01:45:14;;;;;;;36.80;18.63;;;;;;;8.51;100.00;101050.91;5022678;28;20021;-77
2022/12/21 01:47:45;;;;;;;35.33;18.75;;;;;;;8.48;100.00;101058.59;5009932;28;20060;-77
2022/12/21 01:50:32;;;;;;;36.30;19.52;;;;;;;8.49;100.00;101057.78;5023319;28;20277;-77
2022/12/21 01:53:13;;;;;;;38.15;18.83;;;;;;;8.50;100.00;101057.81;5044963;28;20076;-77
2022/12/21 01:55:39;;;;;;;37.67;19.30;;;;;;;8.50;100.00;101052.63;5026285;28;20026;-77
2022/12/21 01:58:08;;;;;;;37.67;19.13;;;;;;;8.51;100.00;101053.50;5019152;28;20017;-77
2022/12/21 02:00:33;;;;;;;37.03;18.88;;;;;;;8.50;100.00;101044.84;5027268;28;20068;-77
2022/12/21 02:03:04;;;;;;;38.05;19.60;;;;;;;8.50;100.00;101039.66;5013861;28;20018;-77
2022/12/21 02:05:41;;;;;;;43.55;20.77;;;;;;;8.51;100.00;101044.00;5021537;28;20064;-77
2022/12/21 02:08:07;;;;;;;38.63;19.40;;;;;;;8.51;100.00;101046.59;5017373;28;20287;-77
2022/12/21 02:10:32;;;;;;;37.05;19.25;;;;;;;8.48;100.00;101043.88;5020498;28;20010;-77
2022/12/21 02:13:04;;;;;;;36.40;18.73;;;;;;;8.44;100.00;101042.00;5023401;28;20018;-77
2022/12/21 02:15:54;;;;;;;38.80;18.52;;;;;;;8.41;100.00;101034.06;5025916;28;20100;-77
2022/12/21 02:18:34;;;;;;;37.72;18.33;;;;;;;8.39;100.00;101040.06;5016588;28;20029;-77
2022/12/21 02:21:25;;;;;;;39.42;18.55;;;;;;;8.37;100.00;101042.59;5019140;28;20036;-77
2022/12/21 02:24:09;;;;;;;35.05;18.45;;;;;;;8.38;100.00;101041.75;5020023;28;20010;-77
2022/12/21 02:26:52;;;;;;;36.47;18.17;;;;;;;8.39;100.00;101038.34;5021174;28;20022;-77
2022/12/21 02:29:36;;;;;;;36.85;18.42;;;;;;;8.39;100.00;101027.97;5020943;28;20180;-77
2022/12/21 02:32:30;;;;;;;39.08;19.95;;;;;;;8.43;100.00;101039.31;5018916;28;20068;-77
2022/12/21 02:35:22;;;;;;;36.58;18.88;;;;;;;8.42;100.00;101033.25;5020208;28;20029;-77
2022/12/21 02:38:24;;;;;;;38.33;19.67;;;;;;;8.44;100.00;101036.81;5051561;28;20045;-77
2022/12/21 02:40:57;;;;;;;38.10;19.70;;;;;;;8.43;100.00;101036.72;5023501;28;20084;-77
2022/12/21 02:46:28;;;;;;;35.63;17.55;;;;;;;8.31;100.00;101045.88;5021158;28;20130;-72
2022/12/21 02:49:03;;;;;;;35.38;18.17;;;;;;;8.27;100.00;101043.09;5025242;28;20177;-72
2022/12/21 02:51:52;;;;;;;39.72;20.85;;;;;;;8.24;100.00;101040.38;5025345;28;20021;-72
2022/12/21 02:54:18;;;;;;;42.80;21.08;;;;;;;8.21;100.00;101032.50;5025621;28;20175;-72
2022/12/21 02:56:44;;;;;;;41.25;21.52;;;;;;;8.20;100.00;101034.22;5020555;28;20014;-71
2022/12/21 02:59:13;;;;;;;47.38;22.85;;;;;;;8.20;100.00;101026.44;5009691;28;20061;-71
2022/12/21 03:01:53;;;;;;;45.53;22.48;;;;;;;8.23;100.00;101029.13;5018495;28;20018;-72
2022/12/21 03:05:12;;;;;;;43.17;22.73;;;;;;;8.26;100.00;101030.97;5021189;28;20097;-71
2022/12/21 03:07:49;;;;;;;44.80;22.83;;;;;;;8.26;100.00;101034.41;4977541;28;20248;-71
2022/12/21 03:10:39;;;;;;;51.53;24.00;;;;;;;8.25;100.00;101030.06;5024297;28;20035;-71
2022/12/21 03:13:20;;;;;;;47.60;23.15;;;;;;;8.22;100.00;101029.94;5014365;28;20073;-72
2022/12/21 03:15:58;;;;;;;43.80;21.88;;;;;;;8.18;100.00;101021.19;5044616;28;20017;-71
2022/12/21 03:18:24;;;;;;;45.10;22.70;;;;;;;8.17;100.00;101011.63;5046339;28;20024;-71
2022/12/21 03:21:06;;;;;;;47.13;23.10;;;;;;;8.16;100.00;101021.94;5014646;28;20021;-72
2022/12/21 03:23:36;;;;;;;50.35;24.40;;;;;;;8.14;100.00;101021.91;5021900;28;20013;-72
2022/12/21 03:26:11;;;;;;;50.72;24.98;;;;;;;8.15;100.00;101018.47;5016473;28;20046;-72
2022/12/21 03:28:41;;;;;;;53.03;25.33;;;;;;;8.16;100.00;101014.16;5020170;28;20067;-72
2022/12/21 03:31:14;;;;;;;55.38;26.27;;;;;;;8.16;100.00;101011.56;5017028;28;20068;-72
2022/12/21 03:33:45;;;;;;;55.00;25.17;;;;;;;8.17;100.00;101011.63;5020387;28;20021;-72
2022/12/21 03:36:26;;;;;;;54.45;25.05;;;;;;;8.18;100.00;101017.69;5020383;28;20026;-72
2022/12/21 03:39:04;;;;;;;54.63;26.02;;;;;;;8.18;100.00;101009.88;5010375;28;20117;-72
2022/12/21 03:41:35;;;;;;;49.83;25.20;;;;;;;8.19;100.00;101016.88;5006336;28;20068;-71
2022/12/21 03:44:04;;;;;;;59.40;25.52;;;;;;;8.21;100.00;101024.69;5056367;28;20268;-71
2022/12/21 03:46:44;;;;;;;52.00;25.17;;;;;;;8.22;100.00;101026.47;5022482;28;20096;-77
2022/12/21 03:49:14;;;;;;;49.80;24.67;;;;;;;8.19;100.00;101020.31;5021682;28;20040;-77
2022/12/21 03:51:49;;;;;;;51.13;25.50;;;;;;;8.17;100.00;101002.97;5025059;28;20050;-77
2022/12/21 03:54:14;;;;;;;50.05;24.88;;;;;;;8.14;100.00;101016.69;5020666;28;20279;-78
2022/12/21 03:56:40;;;;;;;53.40;25.60;;;;;;;8.15;100.00;101017.56;5023256;28;20026;-77
2022/12/21 03:59:08;;;;;;;54.38;27.45;;;;;;;8.11;100.00;101001.03;5014807;28;20056;-77
2022/12/21 04:01:55;;;;;;;55.53;26.90;;;;;;;8.11;100.00;100997.53;5015357;28;20032;-77
2022/12/21 04:04:29;;;;;;;52.95;26.15;;;;;;;8.10;100.00;101019.13;5054087;28;20149;-77
2022/12/21 04:06:58;;;;;;;54.00;25.42;;;;;;;8.09;100.00;101018.22;5030850;28;20043;-77
2022/12/21 04:09:23;;;;;;;50.22;24.70;;;;;;;8.10;100.00;101008.75;5016966;28;20022;-77
2022/12/21 04:14:33;;;;;;;50.58;23.08;;;;;;;8.09;100.00;101007.84;5023719;28;20322;-77
2022/12/21 04:16:58;;;;;;;44.67;22.48;;;;;;;8.07;100.00;101001.72;5015562;28;20053;-77
2022/12/21 04:22:08;;;;;;;43.03;21.70;;;;;;;8.05;100.00;101008.56;5016057;28;20024;-77
2022/12/21 04:30:02;;;;;;;38.53;19.65;;;;;;;8.04;100.00;101016.28;5012991;28;20029;-77
2022/12/21 04:32:27;;;;;;;39.45;19.65;;;;;;;8.03;100.00;100999.84;5005214;28;20173;-77
2022/12/21 04:34:52;;;;;;;37.35;20.17;;;;;;;8.02;100.00;101011.03;5009469;28;20328;-77
2022/12/21 04:37:35;;;;;;;39.47;19.75;;;;;;;8.03;100.00;101001.56;5004505;28;20033;-77
2022/12/21 04:40:01;;;;;;;35.28;18.05;;;;;;;8.02;100.00;101005.84;5015546;28;20101;-77
2022/12/21 04:42:27;;;;;;;37.63;18.10;;;;;;;8.01;100.00;101005.00;5020837;28;20018;-77
2022/12/21 04:44:52;;;;;;;34.47;18.30;;;;;;;8.00;100.00;100991.97;5023018;28;20119;-77
2022/12/21 04:47:18;;;;;;;32.97;16.83;;;;;;;7.95;100.00;100993.50;5021731;28;21366;-77
2022/12/21 04:49:43;;;;;;;30.60;17.00;;;;;;;7.93;100.00;100997.75;5019708;28;20050;-77
2022/12/21 04:52:08;;;;;;;32.53;16.83;;;;;;;7.91;100.00;100991.63;5011695;28;20025;-77
2022/12/21 04:54:34;;;;;;;29.15;15.85;;;;;;;7.90;100.00;100985.53;5016383;28;20025;-77
2022/12/21 04:56:59;;;;;;;28.75;14.60;;;;;;;7.89;100.00;100994.16;5050816;28;20324;-72
2022/12/21 04:59:24;;;;;;;30.27;15.50;;;;;;;7.89;100.00;100993.28;5012058;28;20053;-72
2022/12/21 05:01:50;;;;;;;29.75;15.40;;;;;;;7.88;100.00;100983.72;5013075;28;20311;-72
2022/12/21 05:04:15;;;;;;;26.58;15.43;;;;;;;7.89;100.00;100985.50;5023226;28;20057;-72
2022/12/21 05:06:40;;;;;;;31.75;16.33;;;;;;;7.90;100.00;100989.84;5019631;28;20026;-72
2022/12/21 05:09:06;;;;;;;29.65;15.85;;;;;;;7.89;100.00;100982.91;5025827;28;20053;-72
2022/12/21 05:11:32;;;;;;;27.98;15.45;;;;;;;7.88;100.00;100981.13;5022826;28;20150;-72
2022/12/21 05:13:58;;;;;;;28.80;15.43;;;;;;;7.88;100.00;100987.22;5023622;28;20046;-72
2022/12/21 05:16:24;;;;;;;28.83;16.20;;;;;;;7.89;100.00;100993.28;5007109;28;20034;-72
2022/12/21 05:18:52;;;;;;;30.10;15.15;;;;;;;7.90;100.00;101000.22;5013381;28;20025;-72
2022/12/21 05:21:17;;;;;;;28.02;14.88;;;;;;;7.90;100.00;101000.22;5054160;28;20276;-72
2022/12/21 05:23:43;;;;;;;28.08;15.60;;;;;;;7.89;100.00;101001.06;5024164;28;20077;-72
2022/12/21 05:26:09;;;;;;;28.27;15.00;;;;;;;7.88;100.00;100991.50;5023500;28;20030;-77
2022/12/21 05:28:34;;;;;;;27.67;14.00;;;;;;;7.87;100.00;100994.94;5038753;28;20049;-77
2022/12/21 05:31:02;;;;;;;27.15;14.55;;;;;;;7.88;100.00;100991.50;5024643;28;20283;-77
2022/12/21 05:33:28;;;;;;;29.00;14.32;;;;;;;7.87;100.00;100981.97;5012109;28;20033;-77
2022/12/21 05:35:53;;;;;;;27.80;14.65;;;;;;;7.81;100.00;100978.31;5025658;28;20025;-77
2022/12/21 05:38:18;;;;;;;26.80;15.18;;;;;;;7.80;100.00;100980.84;5058603;28;20032;-77
2022/12/21 05:40:48;;;;;;;27.75;14.65;;;;;;;7.80;100.00;100984.31;5030663;28;20149;-77
2022/12/21 05:43:13;;;;;;;;;;;;;;;7.86;100.00;100987.97;5015519;28;20026;-77
2022/12/21 05:45:38;;;;;;;26.47;13.17;;;;;;;7.81;100.00;100991.28;5024694;28;20187;-77
2022/12/21 05:48:03;;;;;;;26.77;13.93;;;;;;;7.80;100.00;100983.44;5018712;28;20299;-77
2022/12/21 05:50:29;;;;;;;27.63;14.18;;;;;;;7.76;100.00;100987.66;5015984;28;20242;-77
2022/12/21 05:52:54;;;;;;;29.77;14.20;;;;;;;7.75;100.00;100982.38;5025978;28;20029;-77
2022/12/21 05:55:20;;;;;;;28.40;13.93;;;;;;;7.72;100.00;100984.84;5013555;28;20260;-77
2022/12/21 05:57:45;;;;;;;26.75;13.95;;;;;;;7.72;100.00;100983.16;5019181;28;20036;-77
2022/12/21 06:00:11;;;;;;;28.05;14.50;;;;;;;7.69;100.00;100979.56;5023426;28;20029;-77
2022/12/21 06:02:36;;;;;;;26.13;14.20;;;;;;;7.65;100.00;100975.97;5012778;28;20022;-77
2022/12/21 06:05:02;;;;;;;23.33;13.07;;;;;;;7.65;100.00;100973.38;5020569;28;20269;-77
2022/12/21 06:07:28;;;;;;;26.77;13.52;;;;;;;7.63;100.00;100975.94;5015986;28;20026;-77
2022/12/21 06:09:53;;;;;;;26.52;13.43;;;;;;;7.60;100.00;100964.53;5023305;28;20020;-77
2022/12/21 06:12:18;;;;;;;24.25;12.50;;;;;;;7.59;100.00;100970.53;5039474;28;20260;-77
2022/12/21 06:14:43;;;;;;;23.13;12.27;;;;;;;7.56;100.00;100967.84;5015507;28;20026;-77
2022/12/21 06:17:09;;;;;;;26.15;11.50;;;;;;;7.53;100.00;100973.81;5022329;28;20089;-77
2022/12/21 06:19:34;;;;;;;21.50;10.80;;;;;;;7.54;100.00;100975.56;5024648;28;20080;-77
2022/12/21 06:22:00;;;;;;;21.23;10.75;;;;;;;7.51;100.00;100970.25;5019243;28;20029;-77
2022/12/21 06:24:25;;;;;;;20.98;10.25;;;;;;;7.47;100.00;100971.88;5019449;28;20197;-77
2022/12/21 06:26:50;;;;;;;18.35;9.98;;;;;;;7.47;100.00;100964.09;5013302;28;20072;-77
2022/12/21 06:29:16;;;;;;;16.73;9.15;;;;;;;7.46;100.00;100975.28;5021888;28;20045;-77
2022/12/21 06:31:41;;;;;;;21.52;10.35;;;;;;;7.43;100.00;100972.56;5025755;28;20029;-77
2022/12/21 06:34:06;;;;;;;21.30;9.13;;;;;;;7.41;100.00;100973.31;5021272;28;20041;-77
2022/12/21 06:36:32;;;;;;;20.20;9.18;;;;;;;7.39;100.00;100975.00;5010529;28;20033;-77
2022/12/21 06:38:57;;;;;;;16.95;8.63;;;;;;;7.38;100.00;100974.09;5016803;28;20022;-77
2022/12/21 06:41:23;;;;;;;16.10;7.80;;;;;;;7.37;100.00;100972.34;5015258;28;20056;-77
2022/12/21 06:43:50;;;;;;;18.88;8.07;;;;;;;7.35;100.00;100966.19;5016187;28;20018;-77
2022/12/21 06:46:18;;;;;;;14.23;7.22;;;;;;;7.35;100.00;100968.78;4985282;28;1061405;-77
2022/12/21 06:48:44;;;;;;;17.77;7.18;;;;;;;7.34;100.00;100971.31;5023195;28;20021;-77
2022/12/21 06:51:18;;;;;;;15.90;7.53;;;;;;;7.32;100.00;100974.72;5017053;28;20040;-77
2022/12/21 06:53:45;;;;;;;16.50;7.00;;;;;;;7.34;100.00;100981.69;5019087;28;20176;-77
2022/12/21 06:56:19;;;;;;;15.80;7.18;;;;;;;7.34;100.00;100982.56;5022556;28;20084;-77
2022/12/21 06:58:46;;;;;;;13.60;6.70;;;;;;;7.34;100.00;100986.88;5025224;28;20030;-77
2022/12/21 07:01:15;;;;;;;13.65;6.88;;;;;;;7.33;100.00;100993.78;5018578;28;20057;-77
2022/12/21 07:03:41;;;;;;;13.07;6.32;;;;;;;7.32;100.00;101003.25;5011460;28;20010;-77
2022/12/21 07:06:09;;;;;;;13.75;6.90;;;;;;;7.32;100.00;101002.38;5022656;28;20030;-77
2022/12/21 07:08:34;;;;;;;13.85;6.88;;;;;;;7.30;100.00;100993.66;5024428;28;20265;-77
2022/12/21 07:11:02;;;;;;;16.13;6.85;;;;;;;7.30;100.00;101004.03;5022170;28;20014;-77
2022/12/21 07:13:28;;;;;;;12.32;6.75;;;;;;;7.29;100.00;100999.66;5024204;28;20085;-77
2022/12/21 07:15:55;;;;;;;13.35;6.45;;;;;;;7.28;100.00;101000.47;5020158;28;20009;-77
2022/12/21 07:18:21;;;;;;;15.15;6.68;;;;;;;7.24;100.00;100996.00;5014967;28;20022;-77
2022/12/21 07:20:47;;;;;;;15.10;6.35;;;;;;;7.22;100.00;100997.66;5022040;28;20079;-77
2022/12/21 07:23:12;;;;;;;15.13;6.18;;;;;;;7.20;100.00;101002.78;5013559;28;20046;-77
2022/12/21 07:25:37;;;;;;;14.20;5.97;;;;;;;7.18;100.00;101000.94;5020005;28;20025;-77
2022/12/21 07:28:03;;;;;;;14.57;6.18;;;;;;;7.16;100.00;101003.47;5022722;28;20032;-77
2022/12/21 07:30:28;;;;;;;12.57;6.00;;;;;;;7.13;100.00;101001.63;5022651;28;20021;-77
2022/12/21 07:32:53;;;;;;;12.13;5.68;;;;;;;7.12;100.00;100999.84;5007605;28;20026;-77
2022/12/21 07:35:22;;;;;;;13.68;5.85;;;;;;;7.11;100.00;101011.06;5018360;28;20021;-77
2022/12/21 07:37:49;;;;;;;14.33;6.03;;;;;;;7.09;100.00;101012.69;5013511;28;20022;-77
2022/12/21 07:40:18;;;;;;;14.40;5.80;;;;;;;7.09;100.00;101028.25;5024531;28;20044;-77
2022/12/21 07:42:44;;;;;;;14.52;6.07;;;;;;;7.10;100.00;101029.16;5014892;28;20100;-77
2022/12/21 07:45:10;;;;;;;13.90;5.75;;;;;;;7.09;100.00;101030.84;5016504;28;20038;-77
2022/12/21 07:47:35;;;;;;;11.05;5.55;;;;;;;7.09;100.00;101036.00;5021052;28;20053;-77
2022/12/21 07:50:05;;;;;;;11.88;5.78;;;;;;;7.10;100.00;101049.88;5018086;28;20213;-77
2022/12/21 07:52:30;;;;;;;13.48;5.93;;;;;;;7.10;100.00;101055.06;5010157;28;20026;-77
2022/12/21 07:54:56;;;;;;;14.23;5.60;;;;;;;7.10;100.00;101061.13;5017596;28;20083;-77
2022/12/21 07:57:22;;;;;;;13.48;6.00;;;;;;;7.10;100.00;101062.84;5012712;28;20026;-77
2022/12/21 07:59:47;;;;;;;13.32;6.30;;;;;;;7.09;100.00;101069.69;5021703;28;20148;-78
2022/12/21 08:02:12;;;;;;;15.30;6.32;;;;;;;7.09;100.00;101061.06;5011820;28;20310;-77
2022/12/21 08:04:37;;;;;;;14.70;6.38;;;;;;;7.09;100.00;101061.06;5022371;28;20093;-77
2022/12/21 08:07:03;;;;;;;14.18;6.25;;;;;;;7.09;100.00;101061.06;5018869;28;20084;-77
2022/12/21 08:09:28;;;;;;;14.70;6.28;;;;;;;7.07;100.00;101055.81;5020314;28;20025;-77
2022/12/21 08:11:53;;;;;;;15.48;6.45;;;;;;;7.09;100.00;101051.56;5016623;28;20025;-77
2022/12/21 08:14:19;;;;;;;14.55;6.63;;;;;;;7.08;100.00;101044.63;5017178;28;20033;-77
2022/12/21 08:16:44;;;;;;;15.27;7.07;;;;;;;7.09;100.00;101048.09;5009510;28;20273;-77
2022/12/21 08:19:09;;;;;;;19.20;7.53;;;;;;;7.07;100.00;101049.75;5010828;28;20085;-77
2022/12/21 08:21:34;;;;;;;17.08;7.35;;;;;;;7.07;100.00;101058.41;5014472;28;20082;-77
2022/12/21 08:24:00;;;;;;;14.40;6.68;;;;;;;7.07;100.00;101066.16;5014328;28;20022;-77
2022/12/21 08:26:25;;;;;;;14.43;7.07;;;;;;;7.09;100.00;101067.09;5006371;28;20015;-77
2022/12/21 08:28:50;;;;;;;15.02;7.03;;;;;;;7.11;100.00;101062.88;5017308;28;20245;-77
2022/12/21 08:31:18;;;;;;;17.95;7.55;;;;;;;7.11;100.00;101062.88;5013569;28;20018;-77
2022/12/21 08:33:45;;;;;;;13.35;7.18;;;;;;;7.11;100.00;101060.31;5020860;28;20026;-77
2022/12/21 08:36:13;;;;;;;17.35;7.50;;;;;;;7.11;100.00;101062.88;5016558;28;20023;-77
2022/12/21 08:38:39;;;;;;;14.57;7.32;;;;;;;7.14;100.00;101054.38;5023300;28;20036;-77
2022/12/21 08:41:05;;;;;;;16.25;7.93;;;;;;;7.13;100.00;101055.19;5015848;28;20031;-78
2022/12/21 08:43:30;;;;;;;14.88;7.95;;;;;;;7.14;100.00;101047.47;5015707;28;20032;-77
2022/12/21 08:45:56;;;;;;;16.60;8.18;;;;;;;7.17;100.00;101056.16;5015916;28;20031;-77
2022/12/21 08:48:21;;;;;;;17.77;8.98;;;;;;;7.18;100.00;101055.34;5016474;28;20033;-77
2022/12/21 08:50:51;;;;;;;16.08;8.15;;;;;;;7.18;100.00;101056.22;5026253;28;20065;-78
2022/12/21 08:53:16;;;;;;;18.55;8.93;;;;;;;7.21;100.00;101060.66;5017755;28;20030;-78
2022/12/21 08:55:41;;;;;;;18.50;8.63;;;;;;;7.22;100.00;101070.22;5008000;28;20045;-77
2022/12/21 08:58:06;;;;;;;18.27;9.13;;;;;;;7.24;100.00;101060.78;5020384;28;20203;-79
2022/12/21 09:00:32;;;;;;;23.58;9.27;;;;;;;7.25;100.00;101065.16;5019781;28;20208;-77
2022/12/21 09:02:57;;;;;;;22.67;9.88;;;;;;;7.26;100.00;101077.31;5021646;28;20018;-78
2022/12/21 09:05:22;;;;;;;20.08;9.45;;;;;;;7.28;100.00;101067.88;5023007;28;20020;-79
2022/12/21 09:07:48;;;;;;;25.67;10.80;;;;;;;7.30;100.00;101068.84;5023007;28;20037;-72
2022/12/21 09:10:13;;;;;;;26.33;10.45;;;;;;;7.34;100.00;101065.50;5021821;28;20026;-72
2022/12/21 09:12:38;;;;;;;26.50;11.82;;;;;;;7.34;100.00;101065.50;5017605;28;20033;-73
2022/12/21 09:15:05;;;;;;;62.25;28.52;;;;;;;7.35;100.00;101062.09;5021467;28;20175;-72
2022/12/21 09:17:30;;;;;;;59.17;38.00;;;;;;;7.37;100.00;101055.28;5011195;28;20038;-72
2022/12/21 09:19:55;;;;;;;52.17;36.30;;;;;;;7.38;100.00;101043.22;5017783;28;20017;-72
2022/12/21 09:22:23;;;;;;;28.38;13.57;;;;;;;7.40;100.00;101047.63;5008539;28;20021;-72
2022/12/21 09:24:48;;;;;;;34.97;15.40;;;;;;;7.43;100.00;101041.66;5021343;28;20211;-72
2022/12/21 09:27:13;;;;;;;28.35;14.07;;;;;;;7.44;100.00;101041.75;5018321;28;20028;-72
2022/12/21 09:29:38;;;;;;;29.52;14.57;;;;;;;7.47;100.00;101046.16;5023306;28;20137;-72
2022/12/21 09:32:04;;;;;;;29.23;13.75;;;;;;;7.48;100.00;101059.16;5043177;28;20974;-72
2022/12/21 09:34:29;;;;;;;30.27;13.35;;;;;;;7.51;100.00;101060.13;5018454;28;20018;-72
2022/12/21 09:36:55;;;;;;;28.10;13.00;;;;;;;7.51;100.00;101053.22;5014940;28;20177;-78
2022/12/21 09:39:20;;;;;;;29.25;14.07;;;;;;;7.54;100.00;101058.53;5026066;28;20260;-78
2022/12/21 09:41:59;;;;;;;27.52;13.68;;;;;;;7.58;100.00;101062.16;5018878;28;20203;-78
2022/12/21 09:44:30;;;;;;;28.33;13.77;;;;;;;7.60;100.00;101061.38;5025642;28;20053;-78
2022/12/21 09:46:59;;;;;;;27.95;13.10;;;;;;;7.62;100.00;101067.50;5024121;28;20284;-78
2022/12/21 09:49:34;;;;;;;23.02;12.38;;;;;;;7.64;100.00;101073.63;5023722;28;20030;-78
2022/12/21 09:52:02;;;;;;;24.42;12.98;;;;;;;7.66;100.00;101073.69;5018893;28;20006;-78
2022/12/21 09:54:41;;;;;;;28.10;13.40;;;;;;;7.69;100.00;101076.41;5024890;28;20040;-78
2022/12/21 09:57:11;;;;;;;30.67;12.50;;;;;;;7.70;100.00;101070.38;5018804;28;20025;-78
2022/12/21 09:59:37;;;;;;;24.13;12.82;;;;;;;7.72;100.00;101073.94;5058519;28;20026;-78
2022/12/21 10:02:27;;;;;;;29.88;12.45;;;;;;;7.73;100.00;101074.81;5017602;28;20029;-78
2022/12/21 10:05:06;;;;;;;26.85;12.15;;;;;;;7.75;100.00;101081.84;5014561;28;20095;-76
2022/12/21 10:07:51;;;;;;;25.58;12.05;;;;;;;7.77;100.00;101076.72;5015101;28;20025;-76
2022/12/21 10:10:27;;;;;;;30.92;14.10;;;;;;;7.77;100.00;101072.41;5017256;28;20028;-75
2022/12/21 10:13:19;;;;;;;32.90;15.23;;;;;;;7.80;100.00;101075.09;5016196;28;20049;-76
2022/12/21 10:16:16;;;;;;;113.45;44.60;;;;;;;7.81;100.00;101074.28;5017643;28;20093;-68
2022/12/21 10:19:01;;;;;;;30.88;13.40;;;;;;;7.83;100.00;101080.44;5020526;28;20033;-68
2022/12/21 10:21:44;;;;;;;25.40;12.00;;;;;;;7.83;100.00;101083.03;5015630;28;20053;-68
2022/12/21 10:24:21;;;;;;;24.35;12.68;;;;;;;7.85;100.00;101088.28;5014775;28;20272;-68
2022/12/21 10:26:52;;;;;;;29.17;12.82;;;;;;;7.86;100.00;101079.66;5018117;28;20022;-68
2022/12/21 10:29:21;;;;;;;26.70;14.13;;;;;;;7.86;100.00;101079.66;5012801;28;20028;-67
2022/12/21 10:31:47;;;;;;;26.45;11.98;;;;;;;7.87;100.00;101077.97;5014149;28;20022;-68
2022/12/21 10:34:18;;;;;;;23.15;12.40;;;;;;;7.88;100.00;101074.50;5015957;28;20177;-67
2022/12/21 10:36:46;;;;;;;26.45;14.27;;;;;;;7.88;100.00;101075.41;5020904;28;20185;-61
2022/12/21 10:39:15;;;;;;;24.92;11.25;;;;;;;7.88;100.00;101067.63;5048644;28;20041;-61
2022/12/21 10:41:47;;;;;;;27.35;11.70;;;;;;;7.89;100.00;101064.19;5018228;28;20091;-61
2022/12/21 10:44:13;;;;;;;23.67;12.20;;;;;;;7.90;100.00;101058.19;5020470;28;20113;-62
2022/12/21 10:46:38;;;;;;;23.25;10.55;;;;;;;7.90;100.00;101058.19;5012962;28;20328;-61
2022/12/21 10:49:16;;;;;;;26.05;11.13;;;;;;;7.90;100.00;101049.53;5020581;28;20042;-61
2022/12/21 10:51:41;;;;;;;23.40;11.40;;;;;;;7.89;100.00;101043.44;5009315;28;20018;-63
2022/12/21 10:54:09;;;;;;;25.27;14.32;;;;;;;7.90;100.00;101040.03;5018142;28;20192;-62
2022/12/21 10:56:41;;;;;;;20.90;10.55;;;;;;;7.91;100.00;101033.16;5019047;28;20273;-62
2022/12/21 10:59:15;;;;;;;26.25;11.35;;;;;;;7.91;100.00;101030.56;5017724;28;20025;-62
2022/12/21 11:01:40;;;;;;;21.88;11.32;;;;;;;7.92;100.00;101028.00;5018215;28;20026;-62
2022/12/21 11:04:15;;;;;;;23.42;10.93;;;;;;;7.95;100.00;101033.31;5014773;28;20079;-62
2022/12/21 11:07:03;;;;;;;22.33;10.98;;;;;;;7.97;100.00;101029.06;5014601;28;20100;-62
2022/12/21 11:09:39;;;;;;;25.13;11.47;;;;;;;7.98;100.00;101036.00;5022921;28;20022;-62
2022/12/21 11:12:19;;;;;;;21.83;11.60;;;;;;;7.99;100.00;101031.69;5043341;28;20087;-63
2022/12/21 11:14:44;;;;;;;24.75;12.02;;;;;;;7.98;100.00;101036.00;5015710;28;20172;-62
2022/12/21 11:17:31;;;;;;;25.23;12.82;;;;;;;7.98;100.00;101030.81;5024489;28;20274;-69
2022/12/21 11:20:08;;;;;;;23.52;11.55;;;;;;;7.97;100.00;101033.38;5020889;28;20180;-69
2022/12/21 11:22:37;;;;;;;23.45;12.25;;;;;;;7.96;100.00;101037.66;5015057;28;20093;-70
2022/12/21 11:25:03;;;;;;;23.38;11.63;;;;;;;7.97;100.00;101028.19;5013119;28;20028;-69
2022/12/21 11:27:32;;;;;;;21.08;10.80;;;;;;;7.96;100.00;101026.41;5020527;28;20089;-69
2022/12/21 11:30:00;;;;;;;23.92;11.98;;;;;;;7.97;100.00;101031.66;5023798;28;20057;-70
2022/12/21 11:32:29;;;;;;;21.90;10.32;;;;;;;7.98;100.00;101030.81;5023581;28;20045;-69
2022/12/21 11:34:57;;;;;;;24.65;11.85;;;;;;;7.98;100.00;101036.00;5013408;28;20022;-69
2022/12/21 11:37:34;;;;;;;25.67;11.27;;;;;;;8.00;100.00;101030.88;5015631;28;20022;-70